createdAt,value
2022-11-12T00:00:04.083Z,83.96
2022-11-12T00:02:52.457Z,84.40
2022-11-12T00:05:39.246Z,84.72
2022-11-12T00:08:26.721Z,84.65
2022-11-12T00:11:13.718Z,85.47
2022-11-12T00:14:00.356Z,84.97
2022-11-12T00:16:47.302Z,85.30
2022-11-12T00:19:35.838Z,85.44
2022-11-12T00:22:22.514Z,85.42
2022-11-12T00:25:10.317Z,85.34
2022-11-12T00:28:03.495Z,85.28
2022-11-12T00:30:50.233Z,85.06
2022-11-12T00:33:41.897Z,85.17
2022-11-12T00:36:30.351Z,84.93
2022-11-12T00:39:17.484Z,85.11
2022-11-12T00:42:05.155Z,84.88
2022-11-12T00:44:51.976Z,84.91
2022-11-12T00:47:38.580Z,84.92
2022-11-12T00:50:25.642Z,85.21
2022-11-12T00:53:13.786Z,85.52
2022-11-12T00:56:05.746Z,85.00
2022-11-12T00:58:52.606Z,85.21
2022-11-12T01:01:40.451Z,85.05
2022-11-12T01:04:27.127Z,85.12
2022-11-12T01:07:15.940Z,85.13
2022-11-12T01:10:04.618Z,84.98
2022-11-12T01:12:51.275Z,85.15
2022-11-12T01:15:42.753Z,85.02
2022-11-12T01:18:29.813Z,85.17
2022-11-12T01:21:16.734Z,84.96
2022-11-12T01:24:06.822Z,84.91
2022-11-12T01:26:55.223Z,85.21
2022-11-12T01:29:42.019Z,85.29
2022-11-12T01:32:29.065Z,85.39
2022-11-12T01:35:16.122Z,85.16
2022-11-12T01:38:02.886Z,85.43
2022-11-12T01:40:49.860Z,85.52
2022-11-12T01:43:38.372Z,85.64
2022-11-12T01:46:31.230Z,85.92
2022-11-12T01:49:23.915Z,85.96
2022-11-12T01:52:18.634Z,86.21
2022-11-12T01:55:13.414Z,85.82
2022-11-12T01:58:12.556Z,86.13
2022-11-12T02:01:02.109Z,86.26
2022-11-12T02:03:50.541Z,86.10
2022-11-12T02:06:38.893Z,86.14
2022-11-12T02:09:26.531Z,86.06
2022-11-12T02:12:33.500Z,86.16
2022-11-12T02:15:19.811Z,86.21
2022-11-12T02:18:09.279Z,86.77
2022-11-12T02:20:59.345Z,86.97
2022-11-12T02:23:47.347Z,87.11
2022-11-12T02:26:36.985Z,87.24
2022-11-12T02:29:24.261Z,86.95
2022-11-12T02:32:11.090Z,87.33
2022-11-12T02:34:57.885Z,87.92
2022-11-12T02:37:44.907Z,88.12
2022-11-12T02:40:33.188Z,88.29
2022-11-12T02:43:19.954Z,88.44
2022-11-12T02:46:07.140Z,88.97
2022-11-12T02:48:53.790Z,89.20
2022-11-12T02:51:41.004Z,89.44
2022-11-12T02:54:27.735Z,89.29
2022-11-12T02:57:17.891Z,89.89
2022-11-12T03:00:06.788Z,89.92
2022-11-12T03:02:59.885Z,89.74
2022-11-12T03:05:55.057Z,89.90
2022-11-12T03:08:41.971Z,89.90
2022-11-12T03:11:28.754Z,89.87
2022-11-12T03:14:17.215Z,89.97
2022-11-12T03:17:04.108Z,89.65
2022-11-12T03:19:51.095Z,90.04
2022-11-12T03:22:38.060Z,90.08
2022-11-12T03:25:24.885Z,89.93
2022-11-12T03:28:14.569Z,90.69
2022-11-12T03:31:03.243Z,91.41
2022-11-12T03:33:50.323Z,91.48
2022-11-12T03:36:37.545Z,92.14
2022-11-12T03:39:24.357Z,92.32
2022-11-12T03:42:11.621Z,92.29
2022-11-12T03:44:58.278Z,92.38
2022-11-12T03:47:48.629Z,92.36
2022-11-12T03:50:36.900Z,93.38
2022-11-12T03:53:23.544Z,94.70
2022-11-12T03:56:10.360Z,95.92
2022-11-12T03:58:57.160Z,96.65
2022-11-12T04:01:44.219Z,97.54
2022-11-12T04:04:46.474Z,97.70
2022-11-12T04:07:51.189Z,99.20
2022-11-12T04:10:38.285Z,100.00
2022-11-12T04:13:31.337Z,100.00
2022-11-12T04:16:38.682Z,100.00
2022-11-12T04:19:43.418Z,100.00
2022-11-12T04:22:31.582Z,100.00
2022-11-12T04:25:35.014Z,100.00
2022-11-12T04:28:22.016Z,100.00
2022-11-12T04:31:07.823Z,100.00
2022-11-12T04:33:54.561Z,100.00
2022-11-12T04:36:41.355Z,100.00
2022-11-12T04:39:29.775Z,100.00
2022-11-12T04:42:37.029Z,100.00
2022-11-12T04:45:24.058Z,100.00
2022-11-12T04:48:11.164Z,100.00
2022-11-12T04:51:01.132Z,100.00
2022-11-12T04:53:47.913Z,100.00
2022-11-12T04:56:36.190Z,100.00
2022-11-12T04:59:23.141Z,100.00
2022-11-12T05:02:10.180Z,100.00
2022-11-12T05:04:56.783Z,100.00
2022-11-12T05:07:43.812Z,100.00
2022-11-12T05:10:31.757Z,100.00
2022-11-12T05:13:20.246Z,100.00
2022-11-12T05:16:07.426Z,100.00
2022-11-12T05:18:54.045Z,100.00
2022-11-12T05:21:58.491Z,100.00
2022-11-12T05:24:46.099Z,100.00
2022-11-12T05:27:32.823Z,100.00
2022-11-12T05:30:21.687Z,100.00
2022-11-12T05:33:09.074Z,100.00
2022-11-12T05:35:57.644Z,100.00
2022-11-12T05:38:44.224Z,100.00
2022-11-12T05:41:45.209Z,100.00
2022-11-12T05:44:38.271Z,100.00
2022-11-12T05:47:26.682Z,100.00
2022-11-12T05:50:13.513Z,100.00
2022-11-12T05:53:00.557Z,100.00
2022-11-12T05:55:47.609Z,100.00
2022-11-12T05:58:34.687Z,100.00
2022-11-12T06:01:21.862Z,100.00
2022-11-12T06:04:09.998Z,100.00
2022-11-12T06:06:56.726Z,100.00
2022-11-12T06:09:43.537Z,100.00
2022-11-12T06:12:31.250Z,100.00
2022-11-12T06:15:21.116Z,100.00
2022-11-12T06:18:07.952Z,100.00
2022-11-12T06:21:13.328Z,100.00
2022-11-12T06:24:01.449Z,100.00
2022-11-12T06:26:49.830Z,100.00
2022-11-12T06:29:36.582Z,100.00
2022-11-12T06:32:23.542Z,100.00
2022-11-12T06:35:11.124Z,100.00
2022-11-12T06:37:59.169Z,100.00
2022-11-12T06:40:45.746Z,100.00
2022-11-12T06:43:34.194Z,100.00
2022-11-12T06:46:21.261Z,100.00
2022-11-12T06:49:08.494Z,100.00
2022-11-12T06:51:54.994Z,100.00
2022-11-12T06:54:43.450Z,100.00
2022-11-12T06:57:30.201Z,100.00
2022-11-12T07:00:18.778Z,100.00
2022-11-12T07:03:08.733Z,100.00
2022-11-12T07:05:55.782Z,100.00
2022-11-12T07:08:43.239Z,100.00
2022-11-12T07:11:31.713Z,100.00
2022-11-12T07:14:18.316Z,100.00
2022-11-12T07:17:06.467Z,100.00
2022-11-12T07:19:53.431Z,100.00
2022-11-12T07:22:40.661Z,100.00
2022-11-12T07:25:27.436Z,100.00
2022-11-12T07:28:15.903Z,100.00
2022-11-12T07:31:04.671Z,100.00
2022-11-12T07:33:51.399Z,100.00
2022-11-12T07:36:38.431Z,100.00
2022-11-12T07:39:25.405Z,100.00
2022-11-12T07:42:12.157Z,100.00
2022-11-12T07:45:00.404Z,100.00
2022-11-12T07:47:47.139Z,100.00
2022-11-12T07:50:34.131Z,100.00
2022-11-12T07:53:21.206Z,99.63
2022-11-12T07:56:08.853Z,99.84
2022-11-12T07:58:55.572Z,98.97
2022-11-12T08:01:44.996Z,97.91
2022-11-12T08:04:31.701Z,97.28
2022-11-12T08:07:18.680Z,97.16
2022-11-12T08:10:06.702Z,96.75
2022-11-12T08:12:53.351Z,96.11
2022-11-12T08:15:40.404Z,96.61
2022-11-12T08:18:29.869Z,94.26
2022-11-12T08:21:19.339Z,93.66
2022-11-12T08:24:06.895Z,93.58
2022-11-12T08:26:53.816Z,91.33
2022-11-12T08:29:41.030Z,89.92
2022-11-12T08:32:27.928Z,88.91
2022-11-12T08:35:16.353Z,89.22
2022-11-12T08:38:06.612Z,89.77
2022-11-12T08:40:53.538Z,89.17
2022-11-12T08:43:42.182Z,88.10
2022-11-12T08:46:29.397Z,87.90
2022-11-12T08:49:16.289Z,86.38
2022-11-12T08:52:07.623Z,85.80
2022-11-12T08:54:54.345Z,85.43
2022-11-12T08:57:46.127Z,86.08
2022-11-12T09:00:35.673Z,87.21
2022-11-12T09:03:25.340Z,86.72
2022-11-12T09:06:12.078Z,85.05
2022-11-12T09:09:00.476Z,85.73
2022-11-12T09:11:47.175Z,85.58
2022-11-12T09:14:34.172Z,85.83
2022-11-12T09:17:21.042Z,85.56
2022-11-12T09:20:08.919Z,85.81
2022-11-12T09:23:00.984Z,85.15
2022-11-12T09:25:49.606Z,85.28
2022-11-12T09:28:36.639Z,84.71
2022-11-12T09:31:25.709Z,82.94
2022-11-12T09:34:12.715Z,83.13
2022-11-12T09:36:59.467Z,80.63
2022-11-12T09:39:46.509Z,80.17
2022-11-12T09:42:37.343Z,80.60
2022-11-12T09:45:31.301Z,79.51
2022-11-12T09:48:25.020Z,78.27
2022-11-12T09:51:29.845Z,75.26
2022-11-12T09:54:25.333Z,74.21
2022-11-12T09:57:13.446Z,73.78
2022-11-12T10:00:03.459Z,73.40
2022-11-12T10:02:57.467Z,75.84
2022-11-12T10:05:51.005Z,75.70
2022-11-12T10:08:49.170Z,74.20
2022-11-12T10:12:15.448Z,74.73
2022-11-12T10:16:10.357Z,73.37
2022-11-12T10:19:31.957Z,72.72
2022-11-12T10:22:38.570Z,71.10
2022-11-12T10:25:28.159Z,70.95
2022-11-12T10:28:35.624Z,68.55
2022-11-12T10:31:25.542Z,66.62
2022-11-12T10:34:20.035Z,63.72
2022-11-12T10:37:12.055Z,61.61
2022-11-12T10:39:59.330Z,63.36
2022-11-12T10:42:59.662Z,62.40
2022-11-12T10:45:49.013Z,62.18
2022-11-12T10:48:37.417Z,62.12
2022-11-12T10:51:32.300Z,61.59
2022-11-12T10:54:31.719Z,61.45
2022-11-12T10:57:27.342Z,62.75
2022-11-12T11:00:23.495Z,63.63
2022-11-12T11:03:22.659Z,64.71
2022-11-12T11:06:27.312Z,65.74
2022-11-12T11:09:21.761Z,66.64
2022-11-12T11:12:28.290Z,67.69
2022-11-12T11:15:24.645Z,69.57
2022-11-12T11:18:15.593Z,69.36
2022-11-12T11:21:19.301Z,67.71
2022-11-12T11:24:29.698Z,67.36
2022-11-12T11:27:31.302Z,66.03
2022-11-12T11:30:20.792Z,66.39
2022-11-12T11:33:30.949Z,66.73
2022-11-12T11:36:29.947Z,66.57
2022-11-12T11:39:27.546Z,66.81
2022-11-12T11:42:49.911Z,68.23
2022-11-12T11:45:58.882Z,68.72
2022-11-12T11:49:03.480Z,67.11
2022-11-12T11:51:59.953Z,66.36
2022-11-12T11:55:01.814Z,65.74
2022-11-12T11:58:07.882Z,65.36
2022-11-12T12:01:08.351Z,64.93
2022-11-12T12:04:38.382Z,65.74
2022-11-12T12:07:40.399Z,63.04
2022-11-12T12:11:01.233Z,63.30
2022-11-12T12:14:00.796Z,63.98
2022-11-12T12:17:00.772Z,63.42
2022-11-12T12:19:59.155Z,62.59
2022-11-12T12:22:51.733Z,61.57
2022-11-12T12:25:42.653Z,61.35
2022-11-12T12:28:38.906Z,60.17
2022-11-12T12:31:33.840Z,60.26
2022-11-12T12:34:25.807Z,60.33
2022-11-12T12:37:23.296Z,59.67
2022-11-12T12:40:20.343Z,59.48
2022-11-12T12:43:16.811Z,58.79
2022-11-12T12:46:05.053Z,59.15
2022-11-12T12:48:55.455Z,57.99
2022-11-12T12:51:42.528Z,59.75
2022-11-12T12:54:59.889Z,58.80
2022-11-12T12:57:49.875Z,58.83
2022-11-12T13:00:40.342Z,58.20
2022-11-12T13:04:02.476Z,57.97
2022-11-12T13:06:56.095Z,59.79
2022-11-12T13:09:43.202Z,59.52
2022-11-12T13:13:08.236Z,57.71
2022-11-12T13:15:57.116Z,58.25
2022-11-12T13:19:05.554Z,57.65
2022-11-12T13:22:51.733Z,57.79
2022-11-12T13:25:41.400Z,58.73
2022-11-12T13:28:28.567Z,58.49
2022-11-12T13:31:29.151Z,57.04
2022-11-12T13:34:23.599Z,56.70
2022-11-12T13:37:23.708Z,56.37
2022-11-12T13:40:17.209Z,56.62
2022-11-12T13:43:31.417Z,57.98
2022-11-12T13:46:28.981Z,57.49
2022-11-12T13:49:18.490Z,57.94
2022-11-12T13:52:07.429Z,59.10
2022-11-12T13:55:09.631Z,59.88
2022-11-12T13:57:58.398Z,60.48
2022-11-12T14:00:54.124Z,60.71
2022-11-12T14:03:49.656Z,59.87
2022-11-12T14:06:40.317Z,58.97
2022-11-12T14:09:56.612Z,58.97
2022-11-12T14:13:13.446Z,59.98
2022-11-12T14:16:37.391Z,59.87
2022-11-12T14:20:23.715Z,60.36
2022-11-12T14:23:21.590Z,60.16
2022-11-12T14:26:15.928Z,61.56
2022-11-12T14:29:06.010Z,61.25
2022-11-12T14:32:04.750Z,61.88
2022-11-12T14:34:51.975Z,61.92
2022-11-12T14:37:43.639Z,61.20
2022-11-12T14:40:34.514Z,61.19
2022-11-12T14:43:33.551Z,61.77
2022-11-12T14:46:29.332Z,61.27
2022-11-12T14:49:29.325Z,60.96
2022-11-12T14:52:23.214Z,61.16
2022-11-12T14:55:15.009Z,60.88
2022-11-12T14:58:03.068Z,60.13
2022-11-12T15:00:52.612Z,60.26
2022-11-12T15:03:41.206Z,61.14
2022-11-12T15:06:33.971Z,63.12
2022-11-12T15:09:33.852Z,64.08
2022-11-12T15:12:25.579Z,64.11
2022-11-12T15:15:22.755Z,63.56
2022-11-12T15:18:18.979Z,63.22
2022-11-12T15:21:15.648Z,63.50
2022-11-12T15:24:09.242Z,64.36
2022-11-12T15:27:03.705Z,66.13
2022-11-12T15:29:50.479Z,67.63
2022-11-12T15:32:37.674Z,67.63
2022-11-12T15:35:36.994Z,67.58
2022-11-12T15:38:33.348Z,67.48
2022-11-12T15:41:25.206Z,66.35
2022-11-12T15:44:12.663Z,65.60
2022-11-12T15:47:00.024Z,64.82
2022-11-12T15:49:51.959Z,64.26
2022-11-12T15:52:39.129Z,63.63
2022-11-12T15:55:28.703Z,63.58
2022-11-12T15:58:21.202Z,63.16
2022-11-12T16:01:08.530Z,64.00
2022-11-12T16:03:57.101Z,64.27
2022-11-12T16:06:48.819Z,64.74
2022-11-12T16:09:36.472Z,64.97
2022-11-12T16:12:25.522Z,64.24
2022-11-12T16:15:19.802Z,65.12
2022-11-12T16:18:07.446Z,65.81
2022-11-12T16:20:56.226Z,67.38
2022-11-12T16:23:46.255Z,68.23
2022-11-12T16:26:34.874Z,68.97
2022-11-12T16:29:23.598Z,69.67
2022-11-12T16:32:15.384Z,69.76
2022-11-12T16:35:02.611Z,69.44
2022-11-12T16:37:50.129Z,68.99
2022-11-12T16:40:39.056Z,69.59
2022-11-12T16:43:26.395Z,69.36
2022-11-12T16:46:29.051Z,69.25
2022-11-12T16:49:21.222Z,68.63
2022-11-12T16:52:12.425Z,68.42
2022-11-12T16:55:04.285Z,68.42
2022-11-12T16:57:52.327Z,68.41
2022-11-12T17:00:40.095Z,68.65
2022-11-12T17:03:28.852Z,68.55
2022-11-12T17:06:17.733Z,68.18
2022-11-12T17:09:06.326Z,68.28
2022-11-12T17:11:53.547Z,68.51
2022-11-12T17:14:40.622Z,67.60
2022-11-12T17:17:27.918Z,67.89
2022-11-12T17:20:16.540Z,67.97
2022-11-12T17:23:03.797Z,68.13
2022-11-12T17:26:00.888Z,68.43
2022-11-12T17:28:48.520Z,68.69
2022-11-12T17:31:37.752Z,68.68
2022-11-12T17:34:25.371Z,69.57
2022-11-12T17:37:15.368Z,69.75
2022-11-12T17:40:02.511Z,70.85
2022-11-12T17:42:49.836Z,71.81
2022-11-12T17:45:37.044Z,72.19
2022-11-12T17:48:25.942Z,72.58
2022-11-12T17:51:16.078Z,73.21
2022-11-12T17:54:05.105Z,72.83
2022-11-12T17:56:52.360Z,72.64
2022-11-12T17:59:39.527Z,72.83
2022-11-12T18:02:26.415Z,72.43
2022-11-12T18:05:13.364Z,71.66
2022-11-12T18:08:00.174Z,71.22
2022-11-12T18:10:48.600Z,70.73
2022-11-12T18:13:37.906Z,70.16
2022-11-12T18:16:30.797Z,70.83
2022-11-12T18:19:18.131Z,71.30
2022-11-12T18:22:05.205Z,72.25
2022-11-12T18:24:52.970Z,73.50
2022-11-12T18:27:41.421Z,71.90
2022-11-12T18:30:35.003Z,70.17
2022-11-12T18:33:22.597Z,69.97
2022-11-12T18:36:12.464Z,70.10
2022-11-12T18:39:05.452Z,71.02
2022-11-12T18:41:52.648Z,72.43
2022-11-12T18:44:48.871Z,72.30
2022-11-12T18:47:36.129Z,72.40
2022-11-12T18:50:25.865Z,73.68
2022-11-12T18:53:12.986Z,75.31
2022-11-12T18:56:03.529Z,77.06
2022-11-12T18:58:54.217Z,77.09
2022-11-12T19:01:43.868Z,77.26
2022-11-12T19:04:38.774Z,77.13
2022-11-12T19:07:28.330Z,76.86
2022-11-12T19:10:46.620Z,75.92
2022-11-12T19:13:27.706Z,75.74
2022-11-12T19:16:22.962Z,74.91
2022-11-12T19:19:15.316Z,74.65
2022-11-12T19:22:02.882Z,75.41
2022-11-12T19:25:00.308Z,76.85
2022-11-12T19:27:48.028Z,76.90
2022-11-12T19:30:36.471Z,76.41
2022-11-12T19:33:23.520Z,75.90
2022-11-12T19:36:16.946Z,75.63
2022-11-12T19:39:06.500Z,75.70
2022-11-12T19:41:53.548Z,76.63
2022-11-12T19:44:41.036Z,76.94
2022-11-12T19:47:29.405Z,77.15
2022-11-12T19:50:18.806Z,77.89
2022-11-12T19:53:13.715Z,77.73
2022-11-12T19:56:04.152Z,77.61
2022-11-12T19:58:54.994Z,77.69
2022-11-12T20:01:41.869Z,77.13
2022-11-12T20:04:29.380Z,76.92
2022-11-12T20:07:16.868Z,76.73
2022-11-12T20:10:06.803Z,76.00
2022-11-12T20:12:56.690Z,75.41
2022-11-12T20:15:45.108Z,75.01
2022-11-12T20:18:39.958Z,75.07
2022-11-12T20:21:30.304Z,75.04
2022-11-12T20:24:19.357Z,74.87
2022-11-12T20:27:13.775Z,75.14
2022-11-12T20:30:01.089Z,75.08
2022-11-12T20:32:51.079Z,74.82
2022-11-12T20:35:39.967Z,74.85
2022-11-12T20:38:29.704Z,75.09
2022-11-12T20:41:22.222Z,74.57
2022-11-12T20:44:11.696Z,74.46
2022-11-12T20:47:01.535Z,74.24
2022-11-12T20:49:48.506Z,74.49
2022-11-12T20:52:37.828Z,75.02
2022-11-12T20:55:24.966Z,74.66
2022-11-12T20:58:11.978Z,74.42
2022-11-12T21:01:08.493Z,74.56
2022-11-12T21:03:57.869Z,74.99
2022-11-12T21:06:45.247Z,75.52
2022-11-12T21:09:32.829Z,75.56
2022-11-12T21:12:19.998Z,76.03
2022-11-12T21:15:10.305Z,76.32
2022-11-12T21:18:02.384Z,76.00
2022-11-12T21:20:52.620Z,75.99
2022-11-12T21:23:43.524Z,76.11
2022-11-12T21:26:31.198Z,76.12
2022-11-12T21:29:20.487Z,76.30
2022-11-12T21:32:07.434Z,76.39
2022-11-12T21:34:56.311Z,76.73
2022-11-12T21:37:50.512Z,76.60
2022-11-12T21:40:37.644Z,76.68
2022-11-12T21:43:35.146Z,76.93
2022-11-12T21:46:24.788Z,76.95
2022-11-12T21:49:12.076Z,76.46
2022-11-12T21:52:03.649Z,76.46
2022-11-12T21:54:50.911Z,76.48
2022-11-12T21:57:40.288Z,76.98
2022-11-12T22:00:47.120Z,76.98
2022-11-12T22:03:36.223Z,76.66
2022-11-12T22:06:28.344Z,76.42
2022-11-12T22:09:17.205Z,76.46
2022-11-12T22:12:06.079Z,76.23
2022-11-12T22:14:54.648Z,76.40
2022-11-12T22:17:44.051Z,76.36
2022-11-12T22:20:32.382Z,75.98
2022-11-12T22:23:21.414Z,76.21
2022-11-12T22:26:15.786Z,76.47
2022-11-12T22:29:14.876Z,76.74
2022-11-12T22:32:02.014Z,77.26
2022-11-12T22:34:49.617Z,77.30
2022-11-12T22:37:36.710Z,77.00
2022-11-12T22:40:24.926Z,76.84
2022-11-12T22:43:13.211Z,77.26
2022-11-12T22:46:06.223Z,77.04
2022-11-12T22:48:53.276Z,77.17
2022-11-12T22:51:40.524Z,77.06
2022-11-12T22:54:29.947Z,77.42
2022-11-12T22:57:17.196Z,77.72
2022-11-12T23:00:21.537Z,77.31
2022-11-12T23:03:08.667Z,77.45
2022-11-12T23:05:59.721Z,77.50
2022-11-12T23:08:47.479Z,77.89
2022-11-12T23:11:35.847Z,77.79
2022-11-12T23:14:23.125Z,77.80
2022-11-12T23:17:12.997Z,77.82
2022-11-12T23:20:00.088Z,77.65
2022-11-12T23:22:47.091Z,78.09
2022-11-12T23:25:37.040Z,78.05
2022-11-12T23:28:24.186Z,78.19
2022-11-12T23:31:15.061Z,78.41
2022-11-12T23:34:03.470Z,78.40
2022-11-12T23:36:50.277Z,78.78
2022-11-12T23:39:37.229Z,78.29
2022-11-12T23:42:24.348Z,78.18
2022-11-12T23:45:14.165Z,78.73
2022-11-12T23:48:01.230Z,79.38
2022-11-12T23:50:51.214Z,80.63
2022-11-12T23:53:39.846Z,80.28
2022-11-12T23:56:27.114Z,80.71
2022-11-12T23:59:13.743Z,81.08
